sensor_id;sensor_type;location;lat;lon;timestamp;pressure;altitude;pressure_sealevel;temperature;humidity
12763;BME280;6445;52.490;13.378;2023-07-20T00:01:39;118418.47;;;-146.10;100.00
12763;BME280;6445;52.490;13.378;2023-07-20T00:04:06;118418.47;;;-146.10;100.00
12763;BME280;6445;52.490;13.378;2023-07-20T00:06:31;118418.47;;;-146.10;100.00
12763;BME280;6445;52.490;13.378;2023-07-20T00:08:56;118418.47;;;-146.10;100.00
12763;BME280;6445;52.490;13.378;2023-07-20T00:11:26;118418.47;;;-146.10;100.00
12763;BME280;6445;52.490;13.378;2023-07-20T00:13:52;118418.47;;;-146.10;100.00
12763;BME280;6445;52.490;13.378;2023-07-20T00:16:17;118418.47;;;-146.10;100.00
12763;BME280;6445;52.490;13.378;2023-07-20T00:18:42;118418.47;;;-146.10;100.00
12763;BME280;6445;52.490;13.378;2023-07-20T00:21:08;118418.47;;;-146.10;100.00
12763;BME280;6445;52.490;13.378;2023-07-20T00:23:33;118418.47;;;-146.10;100.00
12763;BME280;6445;52.490;13.378;2023-07-20T00:25:58;118418.47;;;-146.10;100.00
12763;BME280;6445;52.490;13.378;2023-07-20T00:28:23;118418.47;;;-146.10;100.00
12763;BME280;6445;52.490;13.378;2023-07-20T00:30:49;118418.47;;;-146.10;100.00
12763;BME280;6445;52.490;13.378;2023-07-20T00:33:16;118418.47;;;-146.10;100.00
12763;BME280;6445;52.490;13.378;2023-07-20T00:35:42;118418.47;;;-146.10;100.00
12763;BME280;6445;52.490;13.378;2023-07-20T00:38:07;118418.47;;;-146.10;100.00
12763;BME280;6445;52.490;13.378;2023-07-20T00:40:39;118418.47;;;-146.10;100.00
12763;BME280;6445;52.490;13.378;2023-07-20T00:43:05;118418.47;;;-146.10;100.00
12763;BME280;6445;52.490;13.378;2023-07-20T00:45:31;118418.47;;;-146.10;100.00
12763;BME280;6445;52.490;13.378;2023-07-20T00:47:57;118418.47;;;-146.10;100.00
12763;BME280;6445;52.490;13.378;2023-07-20T00:50:24;118418.47;;;-146.10;100.00
12763;BME280;6445;52.490;13.378;2023-07-20T00:52:49;118418.47;;;-146.10;100.00
12763;BME280;6445;52.490;13.378;2023-07-20T00:55:14;118418.47;;;-146.10;100.00
12763;BME280;6445;52.490;13.378;2023-07-20T00:57:40;118418.47;;;-146.10;100.00
12763;BME280;6445;52.490;13.378;2023-07-20T01:00:06;118418.47;;;-146.10;100.00
12763;BME280;6445;52.490;13.378;2023-07-20T01:02:31;118418.47;;;-146.10;100.00
12763;BME280;6445;52.490;13.378;2023-07-20T01:04:56;118418.47;;;-146.10;100.00
12763;BME280;6445;52.490;13.378;2023-07-20T01:07:34;118418.47;;;-146.10;100.00
12763;BME280;6445;52.490;13.378;2023-07-20T01:12:42;118418.47;;;-146.10;100.00
12763;BME280;6445;52.490;13.378;2023-07-20T01:15:09;118418.47;;;-146.10;100.00
12763;BME280;6445;52.490;13.378;2023-07-20T01:17:35;118418.47;;;-146.10;100.00
12763;BME280;6445;52.490;13.378;2023-07-20T01:20:01;118418.47;;;-146.10;100.00
12763;BME280;6445;52.490;13.378;2023-07-20T01:22:47;118418.47;;;-146.10;100.00
12763;BME280;6445;52.490;13.378;2023-07-20T01:25:29;118418.47;;;-146.10;100.00
12763;BME280;6445;52.490;13.378;2023-07-20T01:33:44;118418.47;;;-146.10;100.00
12763;BME280;6445;52.490;13.378;2023-07-20T01:36:11;118418.47;;;-146.10;100.00
12763;BME280;6445;52.490;13.378;2023-07-20T01:38:37;118418.47;;;-146.10;100.00
12763;BME280;6445;52.490;13.378;2023-07-20T01:41:02;118418.47;;;-146.10;100.00
12763;BME280;6445;52.490;13.378;2023-07-20T01:43:28;118418.47;;;-146.10;100.00
12763;BME280;6445;52.490;13.378;2023-07-20T01:45:53;118418.47;;;-146.10;100.00
12763;BME280;6445;52.490;13.378;2023-07-20T01:48:18;118418.47;;;-146.10;100.00
12763;BME280;6445;52.490;13.378;2023-07-20T01:50:44;118418.47;;;-146.10;100.00
12763;BME280;6445;52.490;13.378;2023-07-20T01:53:09;118418.47;;;-146.10;100.00
12763;BME280;6445;52.490;13.378;2023-07-20T01:55:34;118418.47;;;-146.10;100.00
12763;BME280;6445;52.490;13.378;2023-07-20T01:57:59;118418.47;;;-146.10;100.00
12763;BME280;6445;52.490;13.378;2023-07-20T02:00:26;118418.47;;;-146.10;100.00
12763;BME280;6445;52.490;13.378;2023-07-20T02:02:51;118418.47;;;-146.10;100.00
12763;BME280;6445;52.490;13.378;2023-07-20T02:05:16;118418.47;;;-146.10;100.00
12763;BME280;6445;52.490;13.378;2023-07-20T02:07:42;118418.47;;;-146.10;100.00
12763;BME280;6445;52.490;13.378;2023-07-20T02:10:08;118418.47;;;-146.10;100.00
12763;BME280;6445;52.490;13.378;2023-07-20T02:12:33;118418.47;;;-146.10;100.00
12763;BME280;6445;52.490;13.378;2023-07-20T02:14:58;118418.47;;;-146.10;100.00
12763;BME280;6445;52.490;13.378;2023-07-20T02:17:23;118418.47;;;-146.10;100.00
12763;BME280;6445;52.490;13.378;2023-07-20T02:19:56;118418.47;;;-146.10;100.00
12763;BME280;6445;52.490;13.378;2023-07-20T02:22:22;118418.47;;;-146.10;100.00
12763;BME280;6445;52.490;13.378;2023-07-20T02:24:47;118418.47;;;-146.10;100.00
12763;BME280;6445;52.490;13.378;2023-07-20T02:27:13;118418.47;;;-146.10;100.00
12763;BME280;6445;52.490;13.378;2023-07-20T02:29:40;118418.47;;;-146.10;100.00
12763;BME280;6445;52.490;13.378;2023-07-20T02:32:06;118418.47;;;-146.10;100.00
12763;BME280;6445;52.490;13.378;2023-07-20T02:34:32;118418.47;;;-146.10;100.00
12763;BME280;6445;52.490;13.378;2023-07-20T02:36:57;118418.47;;;-146.10;100.00
12763;BME280;6445;52.490;13.378;2023-07-20T02:39:24;118418.47;;;-146.10;100.00
12763;BME280;6445;52.490;13.378;2023-07-20T02:41:49;118418.47;;;-146.10;100.00
12763;BME280;6445;52.490;13.378;2023-07-20T02:44:14;118418.47;;;-146.10;100.00
12763;BME280;6445;52.490;13.378;2023-07-20T02:46:39;118418.47;;;-146.10;100.00
12763;BME280;6445;52.490;13.378;2023-07-20T02:49:06;118418.47;;;-146.10;100.00
12763;BME280;6445;52.490;13.378;2023-07-20T02:51:31;118418.47;;;-146.10;100.00
12763;BME280;6445;52.490;13.378;2023-07-20T02:53:56;118418.47;;;-146.10;100.00
12763;BME280;6445;52.490;13.378;2023-07-20T02:56:21;118418.47;;;-146.10;100.00
12763;BME280;6445;52.490;13.378;2023-07-20T02:58:47;118418.47;;;-146.10;100.00
12763;BME280;6445;52.490;13.378;2023-07-20T03:01:13;118418.47;;;-146.10;100.00
12763;BME280;6445;52.490;13.378;2023-07-20T03:03:40;118418.47;;;-146.10;100.00
12763;BME280;6445;52.490;13.378;2023-07-20T03:06:05;118418.47;;;-146.10;100.00
12763;BME280;6445;52.490;13.378;2023-07-20T03:08:30;118418.47;;;-146.10;100.00
12763;BME280;6445;52.490;13.378;2023-07-20T03:10:56;118418.47;;;-146.10;100.00
12763;BME280;6445;52.490;13.378;2023-07-20T03:13:21;118418.47;;;-146.10;100.00
12763;BME280;6445;52.490;13.378;2023-07-20T03:15:46;118418.47;;;-146.10;100.00
12763;BME280;6445;52.490;13.378;2023-07-20T03:18:11;118418.47;;;-146.10;100.00
12763;BME280;6445;52.490;13.378;2023-07-20T03:20:38;118418.47;;;-146.10;100.00
12763;BME280;6445;52.490;13.378;2023-07-20T03:23:03;118418.47;;;-146.10;100.00
12763;BME280;6445;52.490;13.378;2023-07-20T03:25:28;118418.47;;;-146.10;100.00
12763;BME280;6445;52.490;13.378;2023-07-20T03:27:54;118418.47;;;-146.10;100.00
12763;BME280;6445;52.490;13.378;2023-07-20T03:30:19;118418.47;;;-146.10;100.00
12763;BME280;6445;52.490;13.378;2023-07-20T03:32:44;118418.47;;;-146.10;100.00
12763;BME280;6445;52.490;13.378;2023-07-20T03:35:09;118418.47;;;-146.10;100.00
12763;BME280;6445;52.490;13.378;2023-07-20T03:37:35;118418.47;;;-146.10;100.00
12763;BME280;6445;52.490;13.378;2023-07-20T03:40:02;118418.47;;;-146.10;100.00
12763;BME280;6445;52.490;13.378;2023-07-20T03:42:28;118418.47;;;-146.10;100.00
12763;BME280;6445;52.490;13.378;2023-07-20T03:44:53;118418.47;;;-146.10;100.00
12763;BME280;6445;52.490;13.378;2023-07-20T03:47:18;118418.47;;;-146.10;100.00
12763;BME280;6445;52.490;13.378;2023-07-20T03:49:43;118418.47;;;-146.10;100.00
12763;BME280;6445;52.490;13.378;2023-07-20T03:52:09;118418.47;;;-146.10;100.00
12763;BME280;6445;52.490;13.378;2023-07-20T03:54:34;118418.47;;;-146.10;100.00
12763;BME280;6445;52.490;13.378;2023-07-20T03:56:59;118418.47;;;-146.10;100.00
12763;BME280;6445;52.490;13.378;2023-07-20T03:59:25;118418.47;;;-146.10;100.00
12763;BME280;6445;52.490;13.378;2023-07-20T04:01:51;118418.47;;;-146.10;100.00
12763;BME280;6445;52.490;13.378;2023-07-20T04:04:16;118418.47;;;-146.10;100.00
12763;BME280;6445;52.490;13.378;2023-07-20T04:06:42;118418.47;;;-146.10;100.00
12763;BME280;6445;52.490;13.378;2023-07-20T04:09:09;118418.47;;;-146.10;100.00
12763;BME280;6445;52.490;13.378;2023-07-20T04:11:35;118418.47;;;-146.10;100.00
12763;BME280;6445;52.490;13.378;2023-07-20T04:14:00;118418.47;;;-146.10;100.00
12763;BME280;6445;52.490;13.378;2023-07-20T04:16:25;118418.47;;;-146.10;100.00
12763;BME280;6445;52.490;13.378;2023-07-20T04:18:51;118418.47;;;-146.10;100.00
12763;BME280;6445;52.490;13.378;2023-07-20T04:21:17;118418.47;;;-146.10;100.00
12763;BME280;6445;52.490;13.378;2023-07-20T04:23:42;118418.47;;;-146.10;100.00
12763;BME280;6445;52.490;13.378;2023-07-20T04:26:07;118418.47;;;-146.10;100.00
12763;BME280;6445;52.490;13.378;2023-07-20T04:28:32;118416.44;;;-146.10;100.00
12763;BME280;6445;52.490;13.378;2023-07-20T04:31:15;118156.13;;;-146.10;100.00
12763;BME280;6445;52.490;13.378;2023-07-20T04:33:40;118416.44;;;-146.10;100.00
12763;BME280;6445;52.490;13.378;2023-07-20T04:36:06;118416.44;;;-146.10;100.00
12763;BME280;6445;52.490;13.378;2023-07-20T04:38:32;118416.44;;;-146.10;100.00
12763;BME280;6445;52.490;13.378;2023-07-20T04:40:57;118416.44;;;-146.10;100.00
12763;BME280;6445;52.490;13.378;2023-07-20T04:43:22;118416.44;;;-146.10;100.00
12763;BME280;6445;52.490;13.378;2023-07-20T04:45:48;117895.81;;;-146.10;100.00
12763;BME280;6445;52.490;13.378;2023-07-20T04:48:14;117895.81;;;-146.10;100.00
12763;BME280;6445;52.490;13.378;2023-07-20T04:50:41;118156.13;;;-146.10;100.00
12763;BME280;6445;52.490;13.378;2023-07-20T04:53:08;117375.28;;;-146.10;100.00
12763;BME280;6445;52.490;13.378;2023-07-20T04:55:35;117635.53;;;-146.10;100.00
12763;BME280;6445;52.490;13.378;2023-07-20T04:58:02;116854.78;;;-146.10;100.00
12763;BME280;6445;52.490;13.378;2023-07-20T05:00:29;116334.38;;;-146.10;100.00
12763;BME280;6445;52.490;13.378;2023-07-20T05:02:54;115814.03;;;-146.10;100.00
12763;BME280;6445;52.490;13.378;2023-07-20T05:05:19;115293.72;;;-146.10;100.00
12763;BME280;6445;52.490;13.378;2023-07-20T05:07:45;113213.25;;;-146.10;100.00
12763;BME280;6445;52.490;13.378;2023-07-20T05:10:10;112953.25;;;-146.10;100.00
12763;BME280;6445;52.490;13.378;2023-07-20T05:12:36;113213.25;;;-146.10;100.00
12763;BME280;6445;52.490;13.378;2023-07-20T05:15:01;112433.34;;;-146.10;100.00
12763;BME280;6445;52.490;13.378;2023-07-20T05:17:26;112693.28;;;-146.10;100.00
12763;BME280;6445;52.490;13.378;2023-07-20T05:19:51;110873.97;;;-146.10;100.00
12763;BME280;6445;52.490;13.378;2023-07-20T05:22:17;112173.41;;;-146.10;100.00
12763;BME280;6445;52.490;13.378;2023-07-20T05:24:42;108536.03;;;-146.10;100.00
12763;BME280;6445;52.490;13.378;2023-07-20T05:27:08;104383.03;;;-146.10;100.00
12763;BME280;6445;52.490;13.378;2023-07-20T05:29:33;96089.72;;;-146.10;100.00
12763;BME280;6445;52.490;13.378;2023-07-20T05:31:58;100234.25;;;-146.10;100.00
12763;BME280;6445;52.490;13.378;2023-07-20T05:34:24;102826.75;;;-146.10;100.00
12763;BME280;6445;52.490;13.378;2023-07-20T05:36:49;100234.25;;;-146.10;100.00
12763;BME280;6445;52.490;13.378;2023-07-20T05:39:16;97384.44;;;-146.10;100.00
12763;BME280;6445;52.490;13.378;2023-07-20T05:41:42;94536.63;;;-146.10;100.00
12763;BME280;6445;52.490;13.378;2023-07-20T05:44:07;82308.63;;;-146.10;100.00
12763;BME280;6445;52.490;13.378;2023-07-20T05:46:32;69940.88;;;-146.10;100.00
12763;BME280;6445;52.490;13.378;2023-07-20T05:48:58;63296.84;;;-146.10;100.00
12763;BME280;6445;52.490;13.378;2023-07-20T05:51:23;56435.53;;;-146.10;100.00
12763;BME280;6445;52.490;13.378;2023-07-20T05:53:48;57160.59;;;-146.10;100.00
12763;BME280;6445;52.490;13.378;2023-07-20T05:56:13;57216.69;;;-146.10;100.00
12763;BME280;6445;52.490;13.378;2023-07-20T05:58:39;59522.97;;;-146.10;100.00
12763;BME280;6445;52.490;13.378;2023-07-20T06:01:04;70081.56;;;-146.10;100.00
12763;BME280;6445;52.490;13.378;2023-07-20T06:03:32;84516.47;;;-146.10;100.00
12763;BME280;6445;52.490;13.378;2023-07-20T06:06:03;81393.56;;;-146.10;100.00
12763;BME280;6445;52.490;13.378;2023-07-20T06:08:32;97384.44;;;-146.10;100.00
12763;BME280;6445;52.490;13.378;2023-07-20T06:10:57;101530.28;;;-146.10;100.00
12763;BME280;6445;52.490;13.378;2023-07-20T06:13:23;103086.06;;;-146.10;100.00
12763;BME280;6445;52.490;13.378;2023-07-20T06:15:48;106199.44;;;-146.10;100.00
12763;BME280;6445;52.490;13.378;2023-07-20T06:18:14;107757.03;;;-146.10;100.00
12763;BME280;6445;52.490;13.378;2023-07-20T06:20:39;107757.03;;;-146.10;100.00
12763;BME280;6445;52.490;13.378;2023-07-20T06:23:05;107497.38;;;-146.10;100.00
12763;BME280;6445;52.490;13.378;2023-07-20T06:25:30;105420.88;;;-146.10;100.00
12763;BME280;6445;52.490;13.378;2023-07-20T06:27:56;102826.75;;;-146.10;100.00
12763;BME280;6445;52.490;13.378;2023-07-20T06:30:21;98938.63;;;-146.10;100.00
12763;BME280;6445;52.490;13.378;2023-07-20T06:32:46;95571.97;;;-146.10;100.00
12763;BME280;6445;52.490;13.378;2023-07-20T06:35:12;90915.03;;;-146.10;100.00
12763;BME280;6445;52.490;13.378;2023-07-20T06:37:37;91173.59;;;-146.10;100.00
12763;BME280;6445;52.490;13.378;2023-07-20T06:40:03;79415.03;;;-146.10;100.00
12763;BME280;6445;52.490;13.378;2023-07-20T06:42:31;65307.56;;;-146.10;100.00
12763;BME280;6445;52.490;13.378;2023-07-20T06:44:57;53930.91;;;-146.10;97.28
12763;BME280;6445;52.490;13.378;2023-07-20T06:47:22;53456.59;;;-146.10;95.97
12763;BME280;6445;52.490;13.378;2023-07-20T06:49:48;54307.22;;;-146.10;100.00
12763;BME280;6445;52.490;13.378;2023-07-20T06:52:13;56483.63;;;-146.10;100.00
12763;BME280;6445;52.490;13.378;2023-07-20T06:54:38;57106.53;;;-146.10;100.00
12763;BME280;6445;52.490;13.378;2023-07-20T06:57:05;54831.69;;;-146.10;100.00
12763;BME280;6445;52.490;13.378;2023-07-20T06:59:30;54147.09;;;-146.10;99.39
12763;BME280;6445;52.490;13.378;2023-07-20T07:01:55;55682.59;;;-146.10;100.00
12763;BME280;6445;52.490;13.378;2023-07-20T07:04:21;54577.44;;;-146.10;99.84
12763;BME280;6445;52.490;13.378;2023-07-20T07:06:46;52998.34;;;-146.10;88.94
12763;BME280;6445;52.490;13.378;2023-07-20T07:09:11;52570.16;;;-146.10;76.14
12763;BME280;6445;52.490;13.378;2023-07-20T07:11:37;52528.13;;;-146.10;60.63
12763;BME280;6445;52.490;13.378;2023-07-20T07:14:02;52548.13;;;-146.10;59.13
12763;BME280;6445;52.490;13.378;2023-07-20T07:16:27;52590.16;;;-146.10;53.42
12763;BME280;6445;52.490;13.378;2023-07-20T07:18:53;52576.16;;;-146.10;56.03
12763;BME280;6445;52.490;13.378;2023-07-20T07:21:18;52506.13;;;-146.10;59.85
12763;BME280;6445;52.490;13.378;2023-07-20T07:23:43;52538.13;;;-146.10;59.25
12763;BME280;6445;52.490;13.378;2023-07-20T07:26:11;52600.16;;;-146.10;54.02
12763;BME280;6445;52.490;13.378;2023-07-20T07:28:37;52634.19;;;-146.10;49.99
12763;BME280;6445;52.490;13.378;2023-07-20T07:31:05;52644.19;;;-146.10;47.69
12763;BME280;6445;52.490;13.378;2023-07-20T07:33:33;52550.16;;;-146.10;50.26
12763;BME280;6445;52.490;13.378;2023-07-20T07:35:59;52608.16;;;-146.10;49.72
12763;BME280;6445;52.490;13.378;2023-07-20T07:38:25;52700.19;;;-146.10;43.79
12763;BME280;6445;52.490;13.378;2023-07-20T07:40:50;52746.22;;;-146.10;40.41
12763;BME280;6445;52.490;13.378;2023-07-20T07:43:15;52616.16;;;-146.10;45.68
12763;BME280;6445;52.490;13.378;2023-07-20T07:45:41;52540.13;;;-146.10;50.63
12763;BME280;6445;52.490;13.378;2023-07-20T07:48:06;52574.16;;;-146.10;50.20
12763;BME280;6445;52.490;13.378;2023-07-20T07:50:33;52566.16;;;-146.10;47.21
12763;BME280;6445;52.490;13.378;2023-07-20T07:52:58;52694.19;;;-146.10;41.96
12763;BME280;6445;52.490;13.378;2023-07-20T07:55:24;52826.25;;;-146.10;38.15
12763;BME280;6445;52.490;13.378;2023-07-20T07:57:50;52912.31;;;-146.10;36.57
12763;BME280;6445;52.490;13.378;2023-07-20T08:00:15;52854.28;;;-146.10;37.29
12763;BME280;6445;52.490;13.378;2023-07-20T08:02:44;52916.31;;;-146.10;36.18
12763;BME280;6445;52.490;13.378;2023-07-20T08:05:09;52858.28;;;-146.10;36.10
12763;BME280;6445;52.490;13.378;2023-07-20T08:07:38;52642.19;;;-146.10;40.35
12763;BME280;6445;52.490;13.378;2023-07-20T08:10:04;52616.16;;;-146.10;42.47
12763;BME280;6445;52.490;13.378;2023-07-20T08:12:29;52548.13;;;-146.10;47.47
12763;BME280;6445;52.490;13.378;2023-07-20T08:14:55;52454.09;;;-146.10;53.47
12763;BME280;6445;52.490;13.378;2023-07-20T08:17:20;52440.09;;;-146.10;61.11
12763;BME280;6445;52.490;13.378;2023-07-20T08:19:46;52428.09;;;-146.10;64.77
12763;BME280;6445;52.490;13.378;2023-07-20T08:22:11;52458.09;;;-146.10;66.20
12763;BME280;6445;52.490;13.378;2023-07-20T08:24:39;52446.09;;;-146.10;66.09
12763;BME280;6445;52.490;13.378;2023-07-20T08:27:05;52418.09;;;-146.10;68.39
12763;BME280;6445;52.490;13.378;2023-07-20T08:29:30;52460.09;;;-146.10;67.07
12763;BME280;6445;52.490;13.378;2023-07-20T08:31:56;52434.09;;;-146.10;63.56
12763;BME280;6445;52.490;13.378;2023-07-20T08:34:21;52470.13;;;-146.10;57.80
12763;BME280;6445;52.490;13.378;2023-07-20T08:36:46;52454.09;;;-146.10;56.26
12763;BME280;6445;52.490;13.378;2023-07-20T08:39:11;52496.13;;;-146.10;53.94
12763;BME280;6445;52.490;13.378;2023-07-20T08:41:37;52494.13;;;-146.10;54.10
12763;BME280;6445;52.490;13.378;2023-07-20T08:44:02;52426.09;;;-146.10;54.88
12763;BME280;6445;52.490;13.378;2023-07-20T08:46:28;52478.13;;;-146.10;52.91
12763;BME280;6445;52.490;13.378;2023-07-20T08:48:54;52504.13;;;-146.10;53.71
12763;BME280;6445;52.490;13.378;2023-07-20T08:51:21;52502.13;;;-146.10;52.49
12763;BME280;6445;52.490;13.378;2023-07-20T08:53:47;52446.09;;;-146.10;55.97
12763;BME280;6445;52.490;13.378;2023-07-20T08:56:13;52430.09;;;-146.10;57.60
12763;BME280;6445;52.490;13.378;2023-07-20T08:58:43;52426.09;;;-146.10;58.27
12763;BME280;6445;52.490;13.378;2023-07-20T09:01:08;52468.09;;;-146.10;60.54
12763;BME280;6445;52.490;13.378;2023-07-20T09:03:35;52356.06;;;-146.10;55.58
12763;BME280;6445;52.490;13.378;2023-07-20T09:06:03;52354.06;;;-146.10;58.21
12763;BME280;6445;52.490;13.378;2023-07-20T09:08:28;52424.09;;;-146.10;52.48
12763;BME280;6445;52.490;13.378;2023-07-20T09:10:53;52400.09;;;-146.10;52.85
12763;BME280;6445;52.490;13.378;2023-07-20T09:13:18;52434.09;;;-146.10;51.19
12763;BME280;6445;52.490;13.378;2023-07-20T09:15:47;52434.09;;;-146.10;54.20
12763;BME280;6445;52.490;13.378;2023-07-20T09:18:23;52454.09;;;-146.10;52.94
12763;BME280;6445;52.490;13.378;2023-07-20T09:20:49;52456.09;;;-146.10;53.70
12763;BME280;6445;52.490;13.378;2023-07-20T09:23:14;52430.09;;;-146.10;53.38
12763;BME280;6445;52.490;13.378;2023-07-20T09:25:40;52508.13;;;-146.10;50.74
12763;BME280;6445;52.490;13.378;2023-07-20T09:28:05;52524.13;;;-146.10;47.88
12763;BME280;6445;52.490;13.378;2023-07-20T09:30:31;52550.16;;;-146.10;45.24
12763;BME280;6445;52.490;13.378;2023-07-20T09:32:56;52546.13;;;-146.10;44.34
12763;BME280;6445;52.490;13.378;2023-07-20T09:35:22;52528.13;;;-146.10;45.04
12763;BME280;6445;52.490;13.378;2023-07-20T09:37:54;52510.13;;;-146.10;46.37
12763;BME280;6445;52.490;13.378;2023-07-20T09:40:20;52496.13;;;-146.10;47.36
12763;BME280;6445;52.490;13.378;2023-07-20T09:42:46;52398.09;;;-146.10;52.11
12763;BME280;6445;52.490;13.378;2023-07-20T09:45:12;52408.09;;;-146.10;53.85
12763;BME280;6445;52.490;13.378;2023-07-20T09:47:38;52360.06;;;-146.10;55.08
12763;BME280;6445;52.490;13.378;2023-07-20T09:50:05;52328.06;;;-146.10;57.33
12763;BME280;6445;52.490;13.378;2023-07-20T09:52:37;52328.06;;;-146.10;59.70
12763;BME280;6445;52.490;13.378;2023-07-20T09:55:03;52312.06;;;-146.10;60.57
12763;BME280;6445;52.490;13.378;2023-07-20T09:57:29;52332.06;;;-146.10;62.17
12763;BME280;6445;52.490;13.378;2023-07-20T09:59:54;52330.06;;;-146.10;63.79
12763;BME280;6445;52.490;13.378;2023-07-20T10:02:21;52358.06;;;-146.10;64.04
12763;BME280;6445;52.490;13.378;2023-07-20T10:07:18;52354.06;;;-146.10;64.64
12763;BME280;6445;52.490;13.378;2023-07-20T10:09:46;52384.09;;;-146.10;65.49
12763;BME280;6445;52.490;13.378;2023-07-20T10:12:15;52356.06;;;-146.10;65.41
12763;BME280;6445;52.490;13.378;2023-07-20T10:14:46;52396.09;;;-146.10;64.86
12763;BME280;6445;52.490;13.378;2023-07-20T10:17:17;52410.09;;;-146.10;62.35
12763;BME280;6445;52.490;13.378;2023-07-20T10:19:47;52420.09;;;-146.10;58.32
12763;BME280;6445;52.490;13.378;2023-07-20T10:22:19;52478.13;;;-146.10;53.58
12763;BME280;6445;52.490;13.378;2023-07-20T10:24:46;52480.13;;;-146.10;55.29
12763;BME280;6445;52.490;13.378;2023-07-20T10:27:14;52466.09;;;-146.10;56.49
12763;BME280;6445;52.490;13.378;2023-07-20T10:29:40;52364.06;;;-146.10;61.78
12763;BME280;6445;52.490;13.378;2023-07-20T10:32:07;52404.09;;;-146.10;63.01
12763;BME280;6445;52.490;13.378;2023-07-20T10:34:33;52398.09;;;-146.10;62.54
12763;BME280;6445;52.490;13.378;2023-07-20T10:36:58;52396.09;;;-146.10;65.39
12763;BME280;6445;52.490;13.378;2023-07-20T10:39:25;52416.09;;;-146.10;66.50
12763;BME280;6445;52.490;13.378;2023-07-20T10:42:00;52432.09;;;-146.10;64.81
12763;BME280;6445;52.490;13.378;2023-07-20T10:44:27;52444.09;;;-146.10;65.08
12763;BME280;6445;52.490;13.378;2023-07-20T10:46:58;52484.13;;;-146.10;68.37
12763;BME280;6445;52.490;13.378;2023-07-20T10:49:24;52486.13;;;-146.10;70.84
12763;BME280;6445;52.490;13.378;2023-07-20T10:51:57;52562.16;;;-146.10;71.33
12763;BME280;6445;52.490;13.378;2023-07-20T10:56:49;52596.16;;;-146.10;71.47
12763;BME280;6445;52.490;13.378;2023-07-20T10:59:41;52560.16;;;-146.10;71.82
12763;BME280;6445;52.490;13.378;2023-07-20T11:02:09;52634.19;;;-146.10;73.86
12763;BME280;6445;52.490;13.378;2023-07-20T11:04:42;52652.19;;;-146.10;73.31
12763;BME280;6445;52.490;13.378;2023-07-20T11:07:08;52584.16;;;-146.10;69.23
12763;BME280;6445;52.490;13.378;2023-07-20T11:09:34;52570.16;;;-146.10;70.10
12763;BME280;6445;52.490;13.378;2023-07-20T11:12:13;52584.16;;;-146.10;70.16
12763;BME280;6445;52.490;13.378;2023-07-20T11:14:44;52528.13;;;-146.10;70.86
12763;BME280;6445;52.490;13.378;2023-07-20T11:17:17;52606.16;;;-146.10;73.27
12763;BME280;6445;52.490;13.378;2023-07-20T11:19:48;52626.16;;;-146.10;74.27
12763;BME280;6445;52.490;13.378;2023-07-20T11:22:16;52686.19;;;-146.10;75.55
12763;BME280;6445;52.490;13.378;2023-07-20T11:24:42;52624.16;;;-146.10;73.36
12763;BME280;6445;52.490;13.378;2023-07-20T11:27:07;52686.19;;;-146.10;75.11
12763;BME280;6445;52.490;13.378;2023-07-20T11:29:35;52672.19;;;-146.10;75.81
12763;BME280;6445;52.490;13.378;2023-07-20T11:32:02;52780.25;;;-146.10;76.92
12763;BME280;6445;52.490;13.378;2023-07-20T11:34:30;52764.22;;;-146.10;75.44
12763;BME280;6445;52.490;13.378;2023-07-20T11:36:55;52648.19;;;-146.10;70.27
12763;BME280;6445;52.490;13.378;2023-07-20T11:39:21;52516.13;;;-146.10;68.21
12763;BME280;6445;52.490;13.378;2023-07-20T11:41:53;52564.16;;;-146.10;68.05
12763;BME280;6445;52.490;13.378;2023-07-20T11:44:20;52490.13;;;-146.10;64.42
12763;BME280;6445;52.490;13.378;2023-07-20T11:46:46;52452.09;;;-146.10;62.21
12763;BME280;6445;52.490;13.378;2023-07-20T11:49:12;52434.09;;;-146.10;63.10
12763;BME280;6445;52.490;13.378;2023-07-20T11:51:38;52480.13;;;-146.10;61.66
12763;BME280;6445;52.490;13.378;2023-07-20T11:54:05;52432.09;;;-146.10;59.82
12763;BME280;6445;52.490;13.378;2023-07-20T11:56:31;52428.09;;;-146.10;56.36
12763;BME280;6445;52.490;13.378;2023-07-20T11:58:59;52372.06;;;-146.10;56.30
12763;BME280;6445;52.490;13.378;2023-07-20T12:01:27;52404.09;;;-146.10;57.96
12763;BME280;6445;52.490;13.378;2023-07-20T12:04:03;52392.09;;;-146.10;57.30
12763;BME280;6445;52.490;13.378;2023-07-20T12:06:29;52354.06;;;-146.10;59.23
12763;BME280;6445;52.490;13.378;2023-07-20T12:08:56;52412.09;;;-146.10;60.21
12763;BME280;6445;52.490;13.378;2023-07-20T12:11:32;52400.09;;;-146.10;61.92
12763;BME280;6445;52.490;13.378;2023-07-20T12:14:08;52358.06;;;-146.10;63.07
12763;BME280;6445;52.490;13.378;2023-07-20T12:16:37;52370.06;;;-146.10;65.05
12763;BME280;6445;52.490;13.378;2023-07-20T12:19:15;52408.09;;;-146.10;66.54
12763;BME280;6445;52.490;13.378;2023-07-20T12:21:41;52410.09;;;-146.10;67.42
12763;BME280;6445;52.490;13.378;2023-07-20T12:24:08;52434.09;;;-146.10;64.04
12763;BME280;6445;52.490;13.378;2023-07-20T12:26:36;52400.09;;;-146.10;61.46
12763;BME280;6445;52.490;13.378;2023-07-20T12:29:02;52412.09;;;-146.10;62.06
12763;BME280;6445;52.490;13.378;2023-07-20T12:31:30;52356.06;;;-146.10;61.83
12763;BME280;6445;52.490;13.378;2023-07-20T12:33:56;52374.06;;;-146.10;58.93
12763;BME280;6445;52.490;13.378;2023-07-20T12:36:22;52400.09;;;-146.10;58.12
12763;BME280;6445;52.490;13.378;2023-07-20T12:38:47;52374.06;;;-146.10;55.08
12763;BME280;6445;52.490;13.378;2023-07-20T12:41:13;52362.06;;;-146.10;52.85